Gramado Xavier, Brazil
Current Conditions -  °F | °C
As of 4:00 PM on Thursday 29 Jan 2015 (Local Time) from SBSM Reporting Station
Broken Clouds Broken Clouds  
Wind Chill: 75°   Ceiling: 2000
Heat Index: 75°   Visibility: 6mi
Dew Point: 68°   Wind: 13mph
Humidity: 78%   Direction: 120°ESE
Pressure: 29.91"   Gusts: NA
Location:  29.23°S, 52.58°W
Report Text: SBSM 291800Z 12011KT 9999 BKN020 24/20 Q1013
Loading
Personal Weather Stations






























Interactive Weather Map New forecast layout! Learn more

10-Day Weather Forecast

Advertisements
Track Severe Weather on mobile